Time;durP1;ratioP1;P1;durP2;ratioP2;P2;SDS_P1;SDS_P2;PMS_P1;PMS_P2;Temp;Humidity;BMP_temperature;BMP_pressure;BME280_temperature;BME280_humidity;BME280_pressure;Samples;Min_cycle;Max_cycle;Signal;HPM_P1;HPM_P2
2020/12/02 00:00:00;;;;;;;2.42;1.75;;;18.90;24.50;;;;;;5114107;28;20225;-53
2020/12/02 00:02:33;;;;;;;1.63;1.52;;;18.90;24.50;;;;;;5095869;28;20165;-53
2020/12/02 00:05:05;;;;;;;1.30;1.20;;;18.90;24.50;;;;;;5113488;28;20157;-53
2020/12/02 00:07:32;;;;;;;1.73;1.48;;;18.90;24.60;;;;;;5095903;28;20200;-53
2020/12/02 00:09:57;;;;;;;1.50;1.40;;;18.90;24.60;;;;;;5114132;28;20176;-53
2020/12/02 00:12:24;;;;;;;3.90;1.83;;;18.90;24.60;;;;;;5114011;28;20651;-53
2020/12/02 00:14:50;;;;;;;1.80;1.70;;;18.90;24.50;;;;;;5113886;28;20156;-53
2020/12/02 00:17:18;;;;;;;1.90;1.80;;;18.90;24.50;;;;;;5113994;28;20154;-53
2020/12/02 00:19:49;;;;;;;2.00;1.40;;;18.90;24.50;;;;;;5113296;28;20600;-53
2020/12/02 00:22:18;;;;;;;1.88;1.77;;;18.90;24.50;;;;;;5113977;28;20172;-53
2020/12/02 00:24:44;;;;;;;1.60;1.40;;;18.90;24.50;;;;;;5114013;28;20235;-53
2020/12/02 00:27:22;;;;;;;3.00;1.97;;;18.90;24.50;;;;;;5113893;28;20241;-53
2020/12/02 00:29:48;;;;;;;1.98;1.70;;;18.90;24.50;;;;;;5098480;28;20392;-53
2020/12/02 00:32:30;;;;;;;1.80;1.53;;;18.90;24.50;;;;;;5117882;28;20613;-54
2020/12/02 00:34:56;;;;;;;2.30;1.70;;;19.00;24.50;;;;;;5117056;28;20943;-53
2020/12/02 00:37:23;;;;;;;2.23;1.90;;;19.00;24.50;;;;;;5117851;28;20165;-53
2020/12/02 00:39:48;;;;;;;1.52;1.42;;;19.00;24.50;;;;;;5117869;28;20157;-53
2020/12/02 00:42:15;;;;;;;1.70;1.60;;;19.00;24.40;;;;;;5117702;28;20172;-54
2020/12/02 00:44:40;;;;;;;1.30;1.20;;;19.00;24.40;;;;;;5117786;28;20158;-53
2020/12/02 00:47:21;;;;;;;1.30;1.20;;;19.10;24.40;;;;;;5117687;28;20634;-53
2020/12/02 00:49:48;;;;;;;1.85;1.60;;;19.10;24.90;;;;;;5098816;28;20511;-53
2020/12/02 00:52:14;;;;;;;1.88;1.67;;;19.10;24.30;;;;;;5117472;28;20224;-53
2020/12/02 00:54:41;;;;;;;1.77;1.57;;;19.20;24.30;;;;;;5099316;28;20612;-53
2020/12/02 00:57:22;;;;;;;2.60;2.00;;;19.10;24.20;;;;;;5117656;28;20391;-53
2020/12/02 00:59:54;;;;;;;1.67;1.58;;;19.20;24.30;;;;;;5117361;28;20530;-53
2020/12/02 01:02:53;;;;;;;1.60;1.50;;;19.20;24.20;;;;;;5117856;28;20212;-53
2020/12/02 01:05:20;;;;;;;1.60;1.40;;;19.20;24.10;;;;;;5116910;28;20145;-53
2020/12/02 01:07:46;;;;;;;1.63;1.52;;;19.30;24.10;;;;;;5117238;28;20169;-53
2020/12/02 01:10:13;;;;;;;1.48;1.38;;;19.30;24.10;;;;;;5117155;28;20620;-53
2020/12/02 01:12:42;;;;;;;2.85;1.70;;;19.30;24.10;;;;;;5099152;28;20185;-53
2020/12/02 01:15:10;;;;;;;1.52;1.42;;;19.30;24.00;;;;;;5117117;28;20183;-52
2020/12/02 01:17:36;;;;;;;1.73;1.60;;;19.40;24.00;;;;;;5098699;28;20230;-53
2020/12/02 01:20:08;;;;;;;1.55;1.45;;;19.40;23.90;;;;;;5116449;28;20171;-53
2020/12/02 01:22:39;;;;;;;2.13;1.30;;;19.40;23.80;;;;;;5117205;28;20157;-53
2020/12/02 01:25:18;;;;;;;1.27;1.05;;;19.50;23.80;;;;;;5116913;28;20157;-54
2020/12/02 01:28:04;;;;;;;1.42;1.33;;;19.50;23.80;;;;;;5117022;28;20221;-54
2020/12/02 01:30:31;;;;;;;1.60;1.50;;;19.50;23.80;;;;;;5116755;28;20535;-53
2020/12/02 01:32:56;;;;;;;2.65;1.52;;;19.50;23.80;;;;;;5098433;28;20197;-53
2020/12/02 01:35:27;;;;;;;2.13;1.60;;;19.60;23.90;;;;;;5116364;28;20157;-53
2020/12/02 01:38:01;;;;;;;1.70;1.60;;;19.60;23.90;;;;;;5116777;28;20679;-54
2020/12/02 01:40:30;;;;;;;1.30;1.20;;;19.60;23.90;;;;;;5115747;28;20159;-54
2020/12/02 01:43:01;;;;;;;1.60;1.50;;;19.60;23.90;;;;;;5116813;28;20218;-53
2020/12/02 01:45:31;;;;;;;1.58;1.10;;;19.70;24.00;;;;;;5116521;28;20192;-54
2020/12/02 01:48:34;;;;;;;1.50;1.40;;;19.70;24.00;;;;;;5116595;28;20149;-55
2020/12/02 01:50:59;;;;;;;1.27;1.17;;;19.70;24.00;;;;;;5115889;28;20172;-54
2020/12/02 01:53:42;;;;;;;1.63;1.53;;;19.80;24.10;;;;;;5116253;28;20213;-54
2020/12/02 01:56:22;;;;;;;1.60;1.50;;;19.80;24.00;;;;;;5116290;28;20232;-54
2020/12/02 01:59:28;;;;;;;1.67;1.58;;;19.80;23.90;;;;;;5116526;28;20232;-54
2020/12/02 02:02:14;;;;;;;1.50;1.35;;;19.90;23.90;;;;;;5070904;28;20671;-54
2020/12/02 02:05:02;;;;;;;1.60;1.50;;;19.90;23.80;;;;;;5115888;28;20194;-53
2020/12/02 02:07:28;;;;;;;1.40;1.20;;;19.90;23.80;;;;;;5116129;28;20176;-53
2020/12/02 02:09:57;;;;;;;1.52;1.40;;;19.90;23.70;;;;;;5116091;28;20161;-53
2020/12/02 02:12:45;;;;;;;1.08;1.00;;;19.90;23.70;;;;;;5131690;27;20648;-52
2020/12/02 02:15:25;;;;;;;1.40;1.30;;;20.00;23.70;;;;;;5115718;28;20149;-53
2020/12/02 02:17:56;;;;;;;1.30;1.20;;;20.00;23.70;;;;;;5116040;28;20604;-52
2020/12/02 02:20:32;;;;;;;2.17;1.98;;;20.00;23.60;;;;;;5115485;28;20160;-53
2020/12/02 02:22:59;;;;;;;1.50;1.40;;;20.00;24.20;;;;;;5115947;28;20149;-53
2020/12/02 02:25:25;;;;;;;1.73;1.27;;;20.00;23.60;;;;;;5115755;28;20165;-53
2020/12/02 02:27:52;;;;;;;1.45;1.35;;;20.00;23.60;;;;;;5115886;28;20600;-53
2020/12/02 02:30:18;;;;;;;1.25;1.15;;;20.00;23.60;;;;;;5115515;28;20277;-53
2020/12/02 02:32:46;;;;;;;1.50;1.27;;;20.00;23.60;;;;;;5115649;28;20202;-53
2020/12/02 02:35:12;;;;;;;1.45;1.35;;;20.10;23.60;;;;;;5114976;28;20423;-53
2020/12/02 02:37:38;;;;;;;1.58;1.48;;;20.10;23.60;;;;;;5115590;28;20180;-53
2020/12/02 02:40:08;;;;;;;1.30;1.20;;;20.10;23.60;;;;;;5115419;28;20149;-53
2020/12/02 02:42:38;;;;;;;1.50;1.40;;;20.10;23.60;;;;;;5115393;28;20149;-54
2020/12/02 02:45:25;;;;;;;1.20;1.10;;;20.10;23.50;;;;;;5115182;28;20153;-54
2020/12/02 02:47:56;;;;;;;1.73;1.60;;;20.10;23.50;;;;;;5115444;28;20178;-53
2020/12/02 02:50:23;;;;;;;1.40;1.30;;;20.10;23.50;;;;;;5114732;28;20157;-53
2020/12/02 02:52:49;;;;;;;1.30;1.20;;;20.10;23.50;;;;;;5114838;28;20216;-53
2020/12/02 02:55:21;;;;;;;1.60;1.50;;;20.10;23.50;;;;;;5097069;28;20165;-53
2020/12/02 02:57:47;;;;;;;1.35;1.25;;;20.10;23.50;;;;;;5096774;28;20180;-53
2020/12/02 03:00:20;;;;;;;1.90;1.60;;;20.10;23.50;;;;;;5096926;28;20157;-53
2020/12/02 03:02:46;;;;;;;1.20;1.10;;;20.10;23.50;;;;;;5115244;28;20149;-53
2020/12/02 03:05:14;;;;;;;1.57;1.47;;;20.10;23.50;;;;;;5114613;28;20241;-53
2020/12/02 03:07:40;;;;;;;1.50;1.30;;;20.10;23.50;;;;;;5115065;28;20176;-53
2020/12/02 03:10:06;;;;;;;1.23;1.00;;;20.10;23.50;;;;;;5114752;28;20160;-53
2020/12/02 03:12:33;;;;;;;1.33;1.23;;;20.10;23.50;;;;;;5114855;28;20181;-53
2020/12/02 03:14:58;;;;;;;1.90;1.30;;;20.20;23.60;;;;;;5130483;27;20176;-53
2020/12/02 03:17:25;;;;;;;1.27;1.17;;;20.20;23.50;;;;;;5114993;28;20247;-53
2020/12/02 03:20:07;;;;;;;1.42;1.33;;;20.20;23.50;;;;;;5130407;27;20498;-53
2020/12/02 03:22:34;;;;;;;1.40;1.30;;;20.20;23.50;;;;;;5114890;28;20157;-53
2020/12/02 03:25:01;;;;;;;1.50;1.10;;;20.20;23.50;;;;;;5114578;28;20149;-53
2020/12/02 03:27:30;;;;;;;1.00;0.85;;;20.20;23.50;;;;;;5096338;28;20169;-53
2020/12/02 03:29:55;;;;;;;1.33;1.20;;;20.20;23.50;;;;;;5114487;28;20153;-53
2020/12/02 03:32:21;;;;;;;1.17;1.07;;;20.20;23.50;;;;;;5114534;28;20200;-53
2020/12/02 03:34:47;;;;;;;1.40;1.30;;;20.20;23.50;;;;;;5095785;28;20172;-53
2020/12/02 03:37:13;;;;;;;1.80;1.52;;;20.20;23.50;;;;;;5114497;28;20157;-53
2020/12/02 03:39:39;;;;;;;1.25;1.15;;;20.20;23.50;;;;;;5114360;28;20141;-53
2020/12/02 03:42:05;;;;;;;1.90;1.80;;;20.20;23.50;;;;;;5114436;28;20170;-53
2020/12/02 03:44:30;;;;;;;1.33;1.23;;;20.20;23.40;;;;;;5114332;28;20179;-53
2020/12/02 03:46:59;;;;;;;1.37;1.23;;;20.20;23.50;;;;;;5096253;28;20161;-53
2020/12/02 03:49:24;;;;;;;1.80;1.65;;;20.20;23.40;;;;;;5096013;28;20161;-53
2020/12/02 03:51:50;;;;;;;1.90;1.50;;;20.20;24.00;;;;;;5095265;28;20208;-53
2020/12/02 03:54:16;;;;;;;1.40;1.30;;;20.20;23.40;;;;;;5114224;28;20157;-53
2020/12/02 03:56:42;;;;;;;1.30;1.20;;;20.20;23.40;;;;;;5096079;28;20451;-54
2020/12/02 03:59:07;;;;;;;1.63;1.53;;;20.30;23.40;;;;;;5096098;28;20169;-54
2020/12/02 04:01:33;;;;;;;1.40;1.30;;;20.30;23.40;;;;;;5114128;28;20153;-54
2020/12/02 04:03:59;;;;;;;1.10;1.10;;;20.30;23.40;;;;;;5113783;28;20505;-54
2020/12/02 04:06:24;;;;;;;1.43;1.23;;;20.30;23.40;;;;;;5113605;28;20177;-54
2020/12/02 04:08:52;;;;;;;1.03;0.93;;;20.30;23.40;;;;;;5114219;28;20161;-54
2020/12/02 04:11:18;;;;;;;1.25;1.15;;;20.30;23.30;;;;;;5113820;28;20246;-54
2020/12/02 04:13:44;;;;;;;1.10;1.00;;;20.30;23.30;;;;;;5114056;28;20321;-54
2020/12/02 04:16:10;;;;;;;1.25;1.15;;;20.40;23.30;;;;;;5095715;28;20173;-54
2020/12/02 04:18:36;;;;;;;1.60;1.10;;;20.40;23.30;;;;;;5114201;28;20168;-54
2020/12/02 04:21:01;;;;;;;1.63;1.07;;;20.40;23.30;;;;;;5113514;28;20157;-54
2020/12/02 04:23:27;;;;;;;0.70;0.70;;;20.40;23.30;;;;;;5113780;28;20170;-55
2020/12/02 04:25:56;;;;;;;1.27;1.10;;;20.40;23.20;;;;;;5095397;28;20571;-54
2020/12/02 04:28:22;;;;;;;1.20;1.05;;;20.40;23.20;;;;;;5114061;28;20255;-61
2020/12/02 04:30:48;;;;;;;1.70;1.10;;;20.50;23.30;;;;;;5114220;28;20189;-54
2020/12/02 04:33:15;;;;;;;1.45;1.20;;;20.50;23.20;;;;;;5113824;28;20193;-54
2020/12/02 04:35:40;;;;;;;1.20;1.10;;;20.50;23.20;;;;;;5113445;28;20232;-54
2020/12/02 04:38:08;;;;;;;1.37;1.27;;;20.50;23.20;;;;;;5113884;28;20178;-54
2020/12/02 04:40:37;;;;;;;1.00;0.90;;;20.50;23.10;;;;;;5095921;28;20436;-54
2020/12/02 04:43:15;;;;;;;1.27;1.17;;;20.60;23.20;;;;;;5113893;28;20157;-54
2020/12/02 04:45:41;;;;;;;1.40;1.30;;;20.60;23.10;;;;;;5113808;28;20240;-54
2020/12/02 04:48:17;;;;;;;1.10;1.00;;;20.60;23.20;;;;;;5113810;28;20345;-54
2020/12/02 04:50:43;;;;;;;1.10;1.00;;;20.60;23.10;;;;;;5113311;28;20404;-54
2020/12/02 04:53:19;;;;;;;1.65;1.50;;;20.70;23.10;;;;;;5095397;28;20216;-54
2020/12/02 04:55:57;;;;;;;1.17;0.85;;;20.70;23.10;;;;;;5113697;28;20160;-54
2020/12/02 04:58:26;;;;;;;1.20;1.10;;;20.70;23.10;;;;;;5095911;28;20161;-54
2020/12/02 05:00:51;;;;;;;1.10;1.00;;;20.70;23.00;;;;;;5113454;28;20146;-54
2020/12/02 05:03:17;;;;;;;1.20;1.10;;;20.70;23.00;;;;;;5095576;28;20173;-54
2020/12/02 05:05:43;;;;;;;0.90;0.90;;;20.80;23.00;;;;;;5112907;28;20161;-55
2020/12/02 05:08:21;;;;;;;2.13;1.50;;;20.80;23.00;;;;;;5113488;28;20427;-54
2020/12/02 05:10:47;;;;;;;0.90;0.80;;;20.80;23.00;;;;;;5113531;28;20948;-55
2020/12/02 05:13:12;;;;;;;1.20;1.10;;;20.80;22.50;;;;;;5113416;28;20263;-54
2020/12/02 05:15:39;;;;;;;1.03;0.93;;;20.90;23.00;;;;;;5114322;28;20153;-54
2020/12/02 05:18:13;;;;;;;1.10;0.90;;;20.90;23.50;;;;;;5117249;28;20164;-54
2020/12/02 05:20:40;;;;;;;1.20;1.10;;;20.90;23.00;;;;;;5116572;28;20163;-54
2020/12/02 05:23:22;;;;;;;1.30;1.20;;;20.90;23.40;;;;;;5116925;28;20283;-54
2020/12/02 05:25:47;;;;;;;0.95;0.85;;;20.90;22.80;;;;;;5116862;28;20153;-54
2020/12/02 05:28:19;;;;;;;1.07;0.97;;;20.90;23.40;;;;;;5098737;28;20517;-54
2020/12/02 05:30:45;;;;;;;1.38;1.00;;;21.00;22.90;;;;;;5116887;28;20198;-55
2020/12/02 05:33:11;;;;;;;1.17;1.07;;;21.00;22.80;;;;;;5098670;28;20197;-55
2020/12/02 05:35:39;;;;;;;1.07;0.97;;;21.00;22.80;;;;;;5116262;28;20417;-55
2020/12/02 05:38:09;;;;;;;1.10;1.00;;;21.00;22.80;;;;;;5116564;28;20623;-55
2020/12/02 05:40:36;;;;;;;1.30;1.20;;;21.00;22.80;;;;;;5116907;28;20546;-54
2020/12/02 05:43:27;;;;;;;1.17;1.08;;;21.00;22.80;;;;;;5132769;27;20172;-54
2020/12/02 05:45:57;;;;;;;1.60;1.25;;;21.00;22.80;;;;;;5116620;28;20153;-54
2020/12/02 05:48:26;;;;;;;1.00;0.90;;;21.10;22.80;;;;;;5116580;28;20165;-55
2020/12/02 05:50:55;;;;;;;0.70;0.70;;;21.10;22.80;;;;;;5116158;28;20160;-55
2020/12/02 05:53:27;;;;;;;0.88;0.85;;;21.10;22.80;;;;;;5116315;28;20276;-55
2020/12/02 05:55:56;;;;;;;1.77;1.50;;;21.10;22.80;;;;;;5116202;28;20207;-54
2020/12/02 05:58:30;;;;;;;1.23;1.13;;;21.10;22.80;;;;;;5116449;28;20211;-54
2020/12/02 06:00:57;;;;;;;1.15;1.05;;;21.10;22.80;;;;;;5116185;28;20145;-55
2020/12/02 06:03:34;;;;;;;1.98;1.08;;;21.10;22.70;;;;;;5116086;28;20161;-55
2020/12/02 06:06:10;;;;;;;0.93;0.85;;;21.10;22.70;;;;;;5097365;28;20588;-55
2020/12/02 06:08:38;;;;;;;0.90;0.90;;;21.10;22.70;;;;;;5131669;27;20704;-54
2020/12/02 06:11:16;;;;;;;0.90;0.85;;;21.10;22.70;;;;;;5115952;28;20157;-54
2020/12/02 06:13:49;;;;;;;1.90;1.10;;;21.10;22.70;;;;;;5097893;28;20196;-55
2020/12/02 06:16:45;;;;;;;1.10;1.00;;;21.10;22.80;;;;;;5116011;28;20149;-55
2020/12/02 06:19:14;;;;;;;0.80;0.80;;;21.10;22.70;;;;;;5115981;28;20154;-55
2020/12/02 06:21:43;;;;;;;1.10;0.95;;;21.10;22.70;;;;;;5115223;28;20177;-54
2020/12/02 06:24:13;;;;;;;1.02;0.93;;;21.10;22.70;;;;;;5116019;28;20583;-55
2020/12/02 06:26:46;;;;;;;1.08;0.93;;;21.10;22.70;;;;;;5115533;28;20179;-54
2020/12/02 06:29:36;;;;;;;1.33;1.23;;;21.10;22.70;;;;;;5115748;28;20153;-54
2020/12/02 06:32:18;;;;;;;0.93;0.85;;;21.20;22.80;;;;;;5115489;28;20279;-54
2020/12/02 06:34:44;;;;;;;1.10;1.00;;;21.20;22.80;;;;;;5115061;28;20145;-54
2020/12/02 06:37:18;;;;;;;1.67;1.23;;;21.10;22.70;;;;;;5115606;28;20171;-54
2020/12/02 06:39:54;;;;;;;0.80;0.80;;;21.20;22.80;;;;;;5115570;28;20519;-55
2020/12/02 06:42:39;;;;;;;1.10;1.02;;;21.20;22.80;;;;;;5115567;28;20149;-55
2020/12/02 06:45:16;;;;;;;1.27;1.15;;;21.20;22.80;;;;;;5115175;28;20146;-55
2020/12/02 06:47:55;;;;;;;0.82;0.80;;;21.20;22.70;;;;;;5097199;28;20528;-55
2020/12/02 06:50:29;;;;;;;1.40;1.30;;;21.20;22.70;;;;;;5114807;28;20160;-54
2020/12/02 06:53:09;;;;;;;0.95;0.82;;;21.20;22.70;;;;;;5115289;28;20224;-55
2020/12/02 06:55:35;;;;;;;1.00;0.90;;;21.20;23.20;;;;;;5131172;27;20168;-54
2020/12/02 06:58:04;;;;;;;1.00;0.90;;;21.20;22.70;;;;;;5115253;28;20616;-54
2020/12/02 07:00:40;;;;;;;1.30;1.20;;;21.20;22.60;;;;;;5115190;28;20233;-55
2020/12/02 07:03:32;;;;;;;1.20;0.95;;;21.30;22.70;;;;;;5114860;28;20157;-54
2020/12/02 07:06:19;;;;;;;1.13;1.02;;;21.30;22.70;;;;;;5114289;28;20161;-53
2020/12/02 07:08:47;;;;;;;1.15;1.05;;;21.30;22.70;;;;;;5115169;28;20160;-55
2020/12/02 07:11:15;;;;;;;1.10;1.00;;;21.30;22.70;;;;;;5114593;28;20157;-56
2020/12/02 07:13:43;;;;;;;1.30;1.10;;;21.30;22.70;;;;;;5114649;28;20200;-54
2020/12/02 07:16:31;;;;;;;1.15;1.05;;;21.30;22.60;;;;;;5114662;28;20157;-56
2020/12/02 07:19:06;;;;;;;1.02;0.90;;;21.30;22.70;;;;;;5114442;28;20149;-54
2020/12/02 07:21:49;;;;;;;0.80;0.80;;;21.30;22.70;;;;;;5114093;28;20153;-54
2020/12/02 07:24:18;;;;;;;1.35;1.25;;;21.30;22.60;;;;;;5114548;28;20214;-54
2020/12/02 07:26:44;;;;;;;0.98;0.93;;;21.30;22.60;;;;;;5114375;28;20146;-54
2020/12/02 07:29:20;;;;;;;4.10;0.90;;;21.30;22.60;;;;;;5113953;28;20161;-53
2020/12/02 07:31:55;;;;;;;11.57;10.48;;;21.30;22.60;;;;;;5122012;27;20424;-54
2020/12/02 07:34:22;;;;;;;13.75;11.68;;;19.40;14.10;;;;;;5109896;28;20161;-53
2020/12/02 07:36:48;;;;;;;9.05;8.25;;;17.20;16.90;;;;;;5108111;28;20218;-54
2020/12/02 07:39:18;;;;;;;9.50;8.50;;;17.00;19.80;;;;;;5112108;28;20193;-53
2020/12/02 07:42:09;;;;;;;10.38;8.57;;;17.10;21.90;;;;;;5112456;28;20161;-54
2020/12/02 07:44:40;;;;;;;9.98;7.70;;;17.30;22.30;;;;;;5099569;28;20184;-52
2020/12/02 07:47:10;;;;;;;9.27;7.07;;;17.50;22.50;;;;;;5113157;28;20188;-53
2020/12/02 07:49:39;;;;;;;9.90;7.82;;;17.70;22.20;;;;;;5113290;28;20146;-54
2020/12/02 07:52:26;;;;;;;9.98;8.93;;;17.90;21.70;;;;;;5112322;28;20268;-53
2020/12/02 07:54:56;;;;;;;9.70;8.80;;;18.10;21.00;;;;;;5113015;28;20462;-54
2020/12/02 07:57:24;;;;;;;9.63;8.43;;;18.20;20.50;;;;;;5113589;28;20152;-53
2020/12/02 08:00:08;;;;;;;12.18;8.70;;;18.30;20.10;;;;;;5113287;28;20160;-54
2020/12/02 08:02:39;;;;;;;8.68;7.88;;;18.40;19.60;;;;;;5112701;28;20660;-53
2020/12/02 08:05:36;;;;;;;8.23;7.53;;;18.50;19.30;;;;;;5090068;28;20256;-53
2020/12/02 08:08:02;;;;;;;9.85;8.90;;;18.60;19.30;;;;;;5086977;28;20245;-53
2020/12/02 08:10:35;;;;;;;9.02;8.15;;;18.60;19.30;;;;;;5096441;28;20198;-52
2020/12/02 08:13:23;;;;;;;9.40;8.18;;;18.70;19.40;;;;;;5079493;28;20292;-53
2020/12/02 08:15:57;;;;;;;8.35;7.55;;;18.70;19.30;;;;;;5088971;28;20198;-53
2020/12/02 08:18:36;;;;;;;9.50;6.97;;;18.80;19.50;;;;;;5094968;28;20862;-54
2020/12/02 08:21:12;;;;;;;7.75;6.95;;;18.90;20.00;;;;;;5096293;28;20187;-53
2020/12/02 08:23:38;;;;;;;6.38;5.78;;;18.90;19.50;;;;;;5094972;28;20567;-54
2020/12/02 08:26:20;;;;;;;5.28;4.78;;;19.00;19.50;;;;;;5090505;28;20221;-55
2020/12/02 08:28:46;;;;;;;5.38;4.95;;;19.10;19.60;;;;;;5096762;28;20168;-54
2020/12/02 08:31:22;;;;;;;6.28;5.13;;;19.20;19.70;;;;;;5098698;28;20224;-53
2020/12/02 08:34:13;;;;;;;5.10;4.20;;;19.30;19.80;;;;;;5073560;28;20216;-52
2020/12/02 08:36:46;;;;;;;8.18;4.65;;;19.30;19.80;;;;;;5085933;28;20171;-52
2020/12/02 08:39:12;;;;;;;6.43;5.32;;;19.40;19.90;;;;;;5100405;28;20226;-52
2020/12/02 08:41:43;;;;;;;11.40;4.72;;;19.40;19.80;;;;;;5094363;28;20165;-52
2020/12/02 08:44:11;;;;;;;4.32;3.75;;;19.50;19.90;;;;;;5098703;28;20604;-53
2020/12/02 08:47:00;;;;;;;4.68;4.28;;;19.50;20.10;;;;;;5085914;28;20177;-55
2020/12/02 08:49:30;;;;;;;6.28;4.18;;;19.50;20.40;;;;;;5095195;28;20412;-54
2020/12/02 08:51:56;;;;;;;4.85;3.95;;;19.60;20.10;;;;;;5100963;28;20736;-54
2020/12/02 08:54:24;;;;;;;5.53;4.40;;;19.60;20.00;;;;;;5099992;28;20166;-54
2020/12/02 08:56:51;;;;;;;4.18;3.85;;;19.60;20.00;;;;;;5094923;28;20579;-54
2020/12/02 08:59:17;;;;;;;4.70;3.50;;;19.60;20.00;;;;;;5100170;27;20230;-54
2020/12/02 09:01:43;;;;;;;4.85;4.45;;;19.60;20.00;;;;;;5096771;28;20389;-54
2020/12/02 09:04:09;;;;;;;5.50;4.07;;;20.20;20.40;;;;;;5099743;28;20165;-54
2020/12/02 09:06:35;;;;;;;6.00;3.50;;;19.70;20.00;;;;;;5070926;28;20221;-54
2020/12/02 09:09:02;;;;;;;4.25;3.90;;;19.70;20.00;;;;;;5100017;28;20466;-54
2020/12/02 09:11:30;;;;;;;5.55;4.38;;;19.60;20.00;;;;;;5080971;28;20701;-55
2020/12/02 09:13:56;;;;;;;4.85;4.45;;;19.70;20.00;;;;;;5099347;28;20701;-54
2020/12/02 09:16:33;;;;;;;4.10;3.78;;;19.70;20.00;;;;;;5069894;28;20181;-56
2020/12/02 09:19:00;;;;;;;4.75;4.35;;;19.70;20.50;;;;;;5100330;28;20740;-52
2020/12/02 09:21:28;;;;;;;5.40;4.38;;;19.70;20.60;;;;;;5101171;28;20184;-52
2020/12/02 09:23:55;;;;;;;8.38;3.95;;;19.70;20.70;;;;;;5098397;28;20161;-53
2020/12/02 09:26:23;;;;;;;5.10;4.68;;;19.70;20.90;;;;;;5091558;28;20177;-51
2020/12/02 09:28:50;;;;;;;4.20;3.80;;;19.70;20.90;;;;;;5077129;28;20169;-52
2020/12/02 09:31:18;;;;;;;4.28;3.63;;;19.70;20.90;;;;;;5101212;28;20176;-52
2020/12/02 09:33:45;;;;;;;4.57;4.18;;;19.70;21.00;;;;;;5079431;28;20200;-53
2020/12/02 09:36:10;;;;;;;4.75;4.35;;;19.80;21.10;;;;;;5090859;28;20847;-51
2020/12/02 09:38:37;;;;;;;4.20;3.70;;;19.80;21.30;;;;;;5082844;28;20177;-53
2020/12/02 09:41:27;;;;;;;4.15;3.70;;;19.80;21.20;;;;;;5094862;28;20520;-54
2020/12/02 09:44:02;;;;;;;3.58;3.25;;;19.80;21.30;;;;;;5101604;28;20918;-54
2020/12/02 09:46:32;;;;;;;4.22;3.83;;;19.80;21.20;;;;;;5092914;28;20255;-53
2020/12/02 09:48:59;;;;;;;4.15;3.85;;;19.80;21.00;;;;;;5096419;27;20203;-54
2020/12/02 09:51:31;;;;;;;5.20;4.10;;;19.80;21.00;;;;;;5100267;28;20217;-54
2020/12/02 09:53:58;;;;;;;4.25;3.88;;;19.80;21.20;;;;;;5095579;28;20215;-54
2020/12/02 09:56:27;;;;;;;4.18;3.88;;;19.80;21.30;;;;;;5090963;28;20258;-52
2020/12/02 09:58:59;;;;;;;4.32;3.92;;;19.80;21.30;;;;;;5098826;28;20172;-53
2020/12/02 10:01:41;;;;;;;3.90;3.60;;;19.90;21.40;;;;;;5080032;28;20220;-54
2020/12/02 10:05:00;;;;;;;3.60;3.13;;;19.80;21.50;;;;;;5099218;28;20641;-53
2020/12/02 10:08:07;;;;;;;4.43;4.03;;;19.20;21.00;;;;;;5028776;28;20186;-54
2020/12/02 10:10:55;;;;;;;5.18;3.75;;;19.90;21.50;;;;;;5043428;28;20185;-54
2020/12/02 10:13:28;;;;;;;4.22;3.83;;;19.90;21.60;;;;;;5107193;28;20235;-54
2020/12/02 10:16:13;;;;;;;5.15;3.60;;;19.90;21.70;;;;;;5096894;28;20192;-53
2020/12/02 10:18:50;;;;;;;4.90;3.58;;;19.90;21.70;;;;;;5115004;28;20145;-53
2020/12/02 10:21:26;;;;;;;4.07;3.67;;;19.90;21.70;;;;;;5113560;28;20149;-53
2020/12/02 10:24:17;;;;;;;8.20;4.22;;;19.90;21.70;;;;;;5097160;28;20535;-52
2020/12/02 10:27:04;;;;;;;4.25;3.67;;;19.90;21.70;;;;;;5115244;28;20150;-53
2020/12/02 10:30:20;;;;;;;5.15;3.72;;;19.90;21.80;;;;;;5115248;28;20165;-54
2020/12/02 10:33:04;;;;;;;3.22;2.92;;;19.90;21.80;;;;;;5011314;28;20200;-54
2020/12/02 10:35:33;;;;;;;6.57;3.63;;;19.90;22.00;;;;;;5114555;28;20153;-54
2020/12/02 10:38:03;;;;;;;7.55;3.67;;;19.90;22.00;;;;;;5114770;28;20650;-53
2020/12/02 10:40:38;;;;;;;3.47;3.17;;;19.90;22.10;;;;;;5095582;28;20167;-53
2020/12/02 10:43:34;;;;;;;7.40;3.53;;;19.90;22.60;;;;;;5114262;28;20164;-53
2020/12/02 10:46:03;;;;;;;4.47;4.07;;;19.90;21.90;;;;;;5096198;28;20180;-53
2020/12/02 10:48:29;;;;;;;4.05;3.75;;;19.90;22.00;;;;;;5114368;28;20157;-54
2020/12/02 10:50:55;;;;;;;6.60;3.50;;;19.90;22.00;;;;;;5113506;28;20206;-54
2020/12/02 10:53:25;;;;;;;4.38;3.70;;;19.90;22.00;;;;;;5113328;28;20216;-53
2020/12/02 10:55:52;;;;;;;3.50;3.20;;;19.90;22.00;;;;;;5114316;28;20149;-52
2020/12/02 10:58:29;;;;;;;4.22;3.80;;;19.90;22.10;;;;;;5114411;28;20150;-53
2020/12/02 11:00:57;;;;;;;5.15;3.92;;;19.90;22.10;;;;;;5114151;28;20157;-53
2020/12/02 11:03:27;;;;;;;3.97;3.38;;;19.90;21.90;;;;;;5113319;28;20153;-54
2020/12/02 11:06:24;;;;;;;4.50;4.10;;;19.90;22.00;;;;;;5113482;28;20157;-54
2020/12/02 11:09:02;;;;;;;4.03;3.63;;;19.90;21.90;;;;;;5134908;27;20690;-53
2020/12/02 11:11:52;;;;;;;6.35;4.20;;;19.90;21.80;;;;;;5134051;27;20161;-53
2020/12/02 11:14:37;;;;;;;3.08;2.88;;;19.90;21.60;;;;;;5133377;27;20195;-52
2020/12/02 11:17:10;;;;;;;6.60;4.13;;;19.90;21.60;;;;;;5134876;27;20175;-53
2020/12/02 11:19:46;;;;;;;4.68;3.50;;;19.90;21.50;;;;;;5115713;27;20168;-54
2020/12/02 11:22:18;;;;;;;4.78;3.92;;;19.90;21.50;;;;;;5133427;27;20202;-53
2020/12/02 11:24:57;;;;;;;4.88;4.35;;;19.90;21.50;;;;;;5134280;27;20171;-53
2020/12/02 11:27:23;;;;;;;5.60;4.50;;;19.90;21.60;;;;;;5134423;27;20149;-53
2020/12/02 11:29:50;;;;;;;6.90;3.33;;;19.90;21.60;;;;;;5115964;27;20194;-54
2020/12/02 11:32:48;;;;;;;5.78;3.70;;;19.90;21.70;;;;;;5133824;27;20488;-56
2020/12/02 11:35:26;;;;;;;3.90;3.60;;;19.90;22.00;;;;;;5133514;27;20152;-54
2020/12/02 11:38:06;;;;;;;3.70;3.28;;;19.90;22.20;;;;;;5114032;28;20255;-54
2020/12/02 11:40:41;;;;;;;3.38;3.08;;;19.90;22.30;;;;;;5112583;28;20191;-54
2020/12/02 11:43:18;;;;;;;3.95;2.95;;;19.80;22.30;;;;;;5113008;28;20286;-53
2020/12/02 11:45:45;;;;;;;3.33;3.03;;;19.80;22.40;;;;;;5113603;28;20185;-53
2020/12/02 11:48:27;;;;;;;5.43;3.40;;;19.90;22.50;;;;;;5095336;28;20165;-52
2020/12/02 11:51:22;;;;;;;3.08;2.88;;;19.80;22.50;;;;;;5112991;28;20193;-52
2020/12/02 11:53:57;;;;;;;3.85;3.55;;;19.90;22.50;;;;;;5112891;28;20307;-53
2020/12/02 11:56:39;;;;;;;4.07;2.88;;;19.80;22.50;;;;;;5095176;28;20152;-53
2020/12/02 11:59:13;;;;;;;4.50;3.10;;;19.80;22.50;;;;;;5070759;28;20199;-54
2020/12/02 12:01:52;;;;;;;4.45;3.50;;;19.80;22.50;;;;;;5086043;28;20264;-53
2020/12/02 12:04:34;;;;;;;3.55;3.25;;;19.80;22.30;;;;;;5068869;28;20215;-54
2020/12/02 12:07:30;;;;;;;6.57;3.42;;;19.90;22.30;;;;;;5080149;28;20228;-54
2020/12/02 12:10:03;;;;;;;3.95;3.08;;;19.80;22.20;;;;;;5076045;28;20614;-53
2020/12/02 12:12:52;;;;;;;3.90;3.60;;;19.80;22.20;;;;;;5080116;28;20196;-54
2020/12/02 12:15:32;;;;;;;4.05;3.65;;;19.80;22.20;;;;;;5087091;28;20291;-53
2020/12/02 12:18:24;;;;;;;4.00;3.67;;;19.80;22.10;;;;;;5069709;28;20172;-53
2020/12/02 12:20:54;;;;;;;4.18;3.00;;;19.80;22.10;;;;;;5072336;28;20188;-53
2020/12/02 12:23:51;;;;;;;5.03;2.70;;;19.80;22.20;;;;;;5090379;28;20161;-53
2020/12/02 12:26:16;;;;;;;3.25;2.95;;;19.80;22.20;;;;;;5085000;27;20594;-53
2020/12/02 12:28:42;;;;;;;4.03;3.47;;;19.80;22.40;;;;;;5045304;28;20829;-52
2020/12/02 12:31:17;;;;;;;2.97;2.77;;;19.80;23.10;;;;;;5058235;28;20181;-54
2020/12/02 12:33:59;;;;;;;5.22;3.22;;;19.30;23.20;;;;;;5085262;27;20196;-54
2020/12/02 12:36:24;;;;;;;4.00;3.60;;;19.80;24.00;;;;;;5060549;28;20535;-54
2020/12/02 12:39:14;;;;;;;4.70;3.90;;;19.80;24.00;;;;;;5072490;27;20808;-55
2020/12/02 12:41:51;;;;;;;3.67;3.38;;;19.80;24.00;;;;;;5047548;28;20173;-53
2020/12/02 12:44:33;;;;;;;3.65;3.35;;;19.80;24.00;;;;;;5081000;28;20152;-53
2020/12/02 12:47:08;;;;;;;4.43;3.03;;;19.80;24.00;;;;;;5057150;28;20188;-53
2020/12/02 12:49:33;;;;;;;5.43;3.45;;;19.80;24.10;;;;;;5056371;28;20290;-54
2020/12/02 12:52:03;;;;;;;4.80;3.80;;;19.80;24.10;;;;;;5085263;28;20187;-54
2020/12/02 12:54:29;;;;;;;5.68;3.70;;;19.80;24.00;;;;;;5073371;28;20265;-56
2020/12/02 12:56:56;;;;;;;3.80;3.33;;;19.80;24.10;;;;;;5077289;28;20156;-55
2020/12/02 12:59:24;;;;;;;4.43;3.47;;;19.80;24.00;;;;;;5072546;28;20168;-54
2020/12/02 13:01:52;;;;;;;3.30;3.00;;;19.80;24.10;;;;;;5047833;28;20646;-55
2020/12/02 13:04:21;;;;;;;4.35;3.80;;;19.80;24.10;;;;;;5077269;28;20524;-55
2020/12/02 13:06:54;;;;;;;3.97;3.67;;;19.80;24.10;;;;;;5089710;28;20227;-55
2020/12/02 13:09:53;;;;;;;4.63;3.90;;;19.80;24.00;;;;;;5053469;28;20802;-56
2020/12/02 13:12:34;;;;;;;3.88;2.95;;;19.80;24.00;;;;;;5076422;28;20200;-57
2020/12/02 13:15:12;;;;;;;3.90;3.50;;;19.80;24.00;;;;;;5084801;28;20679;-56